Time;durP1;ratioP1;P1;durP2;ratioP2;P2;SDS_P1;SDS_P2;PMS_P1;PMS_P2;Temp;Humidity;BMP_temperature;BMP_pressure;BME280_temperature;BME280_humidity;BME280_pressure;Samples;Min_cycle;Max_cycle;Signal;HPM_P1;HPM_P2
2024/03/04 00:00:48;;;;;;;10.68;4.60;;;11.70;82.60;;;;;;4985597;28;113022;-51
2024/03/04 00:03:13;;;;;;;7.45;4.22;;;11.60;82.40;;;;;;4984960;28;113372;-51
2024/03/04 00:05:39;;;;;;;7.65;4.07;;;11.70;82.30;;;;;;4984966;28;112832;-50
2024/03/04 00:08:05;;;;;;;8.70;4.00;;;11.70;81.90;;;;;;4987637;28;112955;-51
2024/03/04 00:10:31;;;;;;;9.07;3.55;;;11.60;82.20;;;;;;4987710;28;112698;-51
2024/03/04 00:12:57;;;;;;;9.85;4.05;;;11.70;81.70;;;;;;4975295;28;113192;-52
2024/03/04 00:15:23;;;;;;;11.98;4.30;;;11.70;81.90;;;;;;4988304;28;112776;-49
2024/03/04 00:17:50;;;;;;;7.68;3.67;;;11.70;81.50;;;;;;4989151;28;112570;-48
2024/03/04 00:20:18;;;;;;;8.25;3.40;;;11.70;81.80;;;;;;4989249;28;112946;-53
2024/03/04 00:22:47;;;;;;;9.02;3.47;;;11.70;81.70;;;;;;4987865;28;113261;-49
2024/03/04 00:25:17;;;;;;;6.43;2.80;;;11.70;81.60;;;;;;4987633;28;113740;-54
2024/03/04 00:27:48;;;;;;;11.70;3.85;;;11.60;81.80;;;;;;4988317;28;112599;-48
2024/03/04 00:30:13;;;;;;;7.45;3.00;;;11.70;81.70;;;;;;4988865;28;112684;-49
2024/03/04 00:32:39;;;;;;;6.53;3.05;;;11.70;81.50;;;;;;4988441;28;113137;-53
2024/03/04 00:35:06;;;;;;;7.68;2.70;;;11.60;81.50;;;;;;4987916;28;113476;-49
2024/03/04 00:37:32;;;;;;;7.53;2.55;;;11.60;81.80;;;;;;4988634;28;112712;-52
2024/03/04 00:39:58;;;;;;;5.30;2.38;;;11.60;81.70;;;;;;4988609;28;113619;-50
2024/03/04 00:42:25;;;;;;;10.80;2.53;;;11.60;82.10;;;;;;4988165;28;113134;-49
2024/03/04 00:44:51;;;;;;;6.50;2.42;;;11.60;82.00;;;;;;4989632;28;114145;-49
2024/03/04 00:47:17;;;;;;;5.75;2.33;;;11.60;82.00;;;;;;4988166;28;112664;-49
2024/03/04 00:49:45;;;;;;;5.70;2.30;;;11.50;81.80;;;;;;4988669;28;112876;-52
2024/03/04 00:52:12;;;;;;;8.50;2.80;;;11.60;81.90;;;;;;4987501;28;113168;-49
2024/03/04 00:54:38;;;;;;;7.30;3.05;;;11.60;81.80;;;;;;4987377;28;112921;-52
2024/03/04 00:57:07;;;;;;;10.70;4.95;;;11.60;81.60;;;;;;4988493;28;112624;-51
2024/03/04 00:59:33;;;;;;;7.40;2.00;;;11.60;81.70;;;;;;4988510;28;112800;-49
2024/03/04 01:01:58;;;;;;;6.18;1.90;;;11.70;81.40;;;;;;4987237;28;115237;-48
2024/03/04 01:04:24;;;;;;;7.60;2.25;;;11.60;81.50;;;;;;4987261;28;113786;-52
2024/03/04 01:06:52;;;;;;;6.90;1.90;;;11.70;81.70;;;;;;4988380;28;112992;-51
2024/03/04 01:09:18;;;;;;;9.50;2.20;;;11.60;81.60;;;;;;4988189;28;113741;-52
2024/03/04 01:11:44;;;;;;;5.80;2.08;;;11.70;81.40;;;;;;4976127;28;113761;-49
2024/03/04 01:14:09;;;;;;;5.80;1.65;;;11.70;81.40;;;;;;4984328;28;112888;-48
2024/03/04 01:16:35;;;;;;;16.27;3.25;;;11.70;81.30;;;;;;4988118;28;112699;-49
2024/03/04 01:19:01;;;;;;;5.95;1.80;;;11.60;81.30;;;;;;4987535;28;112820;-51
2024/03/04 01:21:27;;;;;;;7.97;2.33;;;11.60;81.30;;;;;;4987125;28;113166;-51
2024/03/04 01:23:52;;;;;;;6.78;2.10;;;11.70;81.20;;;;;;4986785;28;114977;-49
2024/03/04 01:26:23;;;;;;;6.35;1.85;;;11.70;81.60;;;;;;4987987;28;112837;-49
2024/03/04 01:28:49;;;;;;;7.20;1.98;;;11.70;81.50;;;;;;4987761;28;112823;-49
2024/03/04 01:31:15;;;;;;;7.63;1.85;;;11.70;81.90;;;;;;4987848;28;113251;-50
2024/03/04 01:33:45;;;;;;;7.25;1.90;;;11.70;82.20;;;;;;4986931;28;112616;-51
2024/03/04 01:36:12;;;;;;;7.50;2.45;;;11.70;82.60;;;;;;4987256;28;112931;-49
2024/03/04 01:38:37;;;;;;;9.85;1.83;;;11.60;82.50;;;;;;4987976;28;112765;-52
2024/03/04 01:41:03;;;;;;;5.40;1.63;;;11.50;82.80;;;;;;4986791;28;113260;-53
2024/03/04 01:43:29;;;;;;;9.85;2.03;;;11.40;83.00;;;;;;4986951;28;112926;-50
2024/03/04 01:45:55;;;;;;;10.18;2.08;;;11.50;83.40;;;;;;4987379;28;112709;-48
2024/03/04 01:48:22;;;;;;;7.95;2.13;;;11.50;83.60;;;;;;4987815;28;112841;-50
2024/03/04 01:50:50;;;;;;;6.53;1.67;;;11.50;83.00;;;;;;4986735;28;113247;-51
2024/03/04 01:53:17;;;;;;;10.63;2.35;;;11.40;83.20;;;;;;4986384;28;113404;-51
2024/03/04 01:55:46;;;;;;;9.52;2.17;;;11.30;84.70;;;;;;4987374;28;112553;-50
2024/03/04 01:58:12;;;;;;;9.30;2.10;;;11.30;84.70;;;;;;4987253;28;112793;-49
2024/03/04 02:00:44;;;;;;;9.27;1.95;;;11.30;84.40;;;;;;4986229;28;113777;-49
2024/03/04 02:03:14;;;;;;;7.97;2.45;;;11.30;84.20;;;;;;4983589;28;113937;-50
2024/03/04 02:05:42;;;;;;;6.85;2.33;;;11.30;84.40;;;;;;4971670;28;112876;-49
2024/03/04 02:08:09;;;;;;;6.63;1.85;;;11.40;84.50;;;;;;4975594;28;112711;-51
2024/03/04 02:10:34;;;;;;;6.30;1.83;;;11.40;84.00;;;;;;4979397;28;113168;-50
2024/03/04 02:13:01;;;;;;;9.52;1.77;;;11.40;83.90;;;;;;4979434;28;112762;-54
2024/03/04 02:15:26;;;;;;;6.85;2.50;;;11.40;83.80;;;;;;4985413;28;112676;-51
2024/03/04 02:17:52;;;;;;;9.25;1.95;;;11.40;84.50;;;;;;4987445;28;115750;-50
2024/03/04 02:20:19;;;;;;;9.98;2.60;;;11.30;84.80;;;;;;4972143;28;114634;-49
2024/03/04 02:22:45;;;;;;;10.32;1.95;;;11.30;85.00;;;;;;4986140;28;114360;-49
2024/03/04 02:25:11;;;;;;;10.88;2.50;;;11.20;85.30;;;;;;4986739;28;112691;-52
2024/03/04 02:27:42;;;;;;;11.25;2.50;;;11.20;85.30;;;;;;4986720;28;112774;-50
2024/03/04 02:30:08;;;;;;;4.53;1.80;;;11.20;85.30;;;;;;4985158;28;113208;-48
2024/03/04 02:32:35;;;;;;;9.25;2.40;;;11.30;85.40;;;;;;4986334;28;113545;-49
2024/03/04 02:35:05;;;;;;;7.70;2.00;;;11.30;85.10;;;;;;4986712;28;112628;-54
2024/03/04 02:37:35;;;;;;;9.43;2.30;;;11.20;84.90;;;;;;4972932;28;112648;-49
2024/03/04 02:40:04;;;;;;;9.80;2.08;;;11.20;85.00;;;;;;4986008;28;113307;-49
2024/03/04 02:42:31;;;;;;;11.27;2.10;;;11.20;84.70;;;;;;4985836;28;113045;-52
2024/03/04 02:44:57;;;;;;;10.02;1.95;;;11.20;84.90;;;;;;4986575;28;112700;-49
2024/03/04 02:47:22;;;;;;;9.80;2.58;;;11.30;84.90;;;;;;4986818;28;112729;-49
2024/03/04 02:49:48;;;;;;;10.90;2.70;;;11.30;84.70;;;;;;4986062;28;113336;-50
2024/03/04 02:52:14;;;;;;;8.75;1.88;;;11.20;85.10;;;;;;4985552;28;113841;-51
2024/03/04 02:54:40;;;;;;;14.13;2.28;;;11.20;85.30;;;;;;4986758;28;112703;-52
2024/03/04 02:57:05;;;;;;;9.98;2.55;;;11.20;85.40;;;;;;4986920;28;112695;-49
2024/03/04 02:59:31;;;;;;;8.77;2.15;;;11.20;85.40;;;;;;4985153;28;114514;-49
2024/03/04 03:01:57;;;;;;;10.10;2.10;;;11.10;85.40;;;;;;4985758;28;112662;-51
2024/03/04 03:04:25;;;;;;;8.20;2.53;;;11.10;85.40;;;;;;4986491;28;113393;-55
2024/03/04 03:06:51;;;;;;;8.18;1.98;;;11.20;85.30;;;;;;4986603;28;112686;-49
2024/03/04 03:09:17;;;;;;;8.30;2.15;;;11.20;85.40;;;;;;4985772;28;113560;-52
2024/03/04 03:11:43;;;;;;;9.45;2.40;;;11.10;85.40;;;;;;4971326;28;113977;-55
2024/03/04 03:14:08;;;;;;;7.80;2.20;;;11.10;85.40;;;;;;4986217;28;112833;-49
2024/03/04 03:16:34;;;;;;;11.30;2.30;;;11.10;85.20;;;;;;4986410;28;112713;-51
2024/03/04 03:19:00;;;;;;;11.25;2.42;;;11.10;85.40;;;;;;4985676;28;113235;-49
2024/03/04 03:21:29;;;;;;;11.93;2.00;;;11.10;85.60;;;;;;4985421;28;113057;-50
2024/03/04 03:23:55;;;;;;;11.18;2.90;;;11.10;85.60;;;;;;4986550;28;112855;-50
2024/03/04 03:26:22;;;;;;;11.35;2.35;;;11.00;85.90;;;;;;4986449;28;112834;-49
2024/03/04 03:28:48;;;;;;;10.90;2.30;;;11.00;85.90;;;;;;4984886;28;114573;-49
2024/03/04 03:31:15;;;;;;;8.43;2.17;;;11.00;85.70;;;;;;4986132;28;112788;-52
2024/03/04 03:33:41;;;;;;;12.05;2.53;;;11.00;85.60;;;;;;4986278;28;112896;-48
2024/03/04 03:36:07;;;;;;;9.15;2.72;;;11.00;85.30;;;;;;4986398;28;112672;-50
2024/03/04 03:38:33;;;;;;;8.20;2.42;;;11.10;85.40;;;;;;4983720;28;116186;-57
2024/03/04 03:41:00;;;;;;;9.02;2.10;;;11.10;85.50;;;;;;4985709;28;112850;-52
2024/03/04 03:43:25;;;;;;;9.43;2.28;;;11.10;85.60;;;;;;5021601;27;113033;-50
2024/03/04 03:45:51;;;;;;;7.90;2.00;;;11.00;85.80;;;;;;4989701;28;112891;-50
2024/03/04 03:48:19;;;;;;;9.20;2.20;;;11.00;85.80;;;;;;4986930;28;116257;-49
2024/03/04 03:50:46;;;;;;;7.05;1.85;;;11.00;85.90;;;;;;4988415;28;112993;-49
2024/03/04 03:53:11;;;;;;;9.55;2.17;;;11.10;85.90;;;;;;4989284;28;113011;-48
2024/03/04 03:55:38;;;;;;;9.45;2.58;;;11.00;85.90;;;;;;4989414;28;112895;-51
2024/03/04 03:58:04;;;;;;;10.68;2.20;;;11.00;85.90;;;;;;4988940;28;113561;-49
2024/03/04 04:00:30;;;;;;;8.88;2.13;;;11.00;86.20;;;;;;4988285;28;113829;-49
2024/03/04 04:02:56;;;;;;;10.25;2.67;;;10.90;86.40;;;;;;4987807;28;112616;-49
2024/03/04 04:05:22;;;;;;;10.88;2.50;;;10.90;86.60;;;;;;4989211;28;113001;-48
2024/03/04 04:07:48;;;;;;;9.68;2.40;;;10.80;86.60;;;;;;4988257;28;113328;-52
2024/03/04 04:10:16;;;;;;;11.00;2.67;;;10.80;86.80;;;;;;4982104;28;114100;-49
2024/03/04 04:12:42;;;;;;;7.88;2.25;;;10.80;87.00;;;;;;4981715;28;112896;-51
2024/03/04 04:15:08;;;;;;;8.60;2.28;;;10.80;87.00;;;;;;4989130;28;112848;-48
2024/03/04 04:17:33;;;;;;;13.27;2.30;;;10.80;86.90;;;;;;4988331;28;113553;-50
2024/03/04 04:19:59;;;;;;;6.13;1.90;;;10.80;86.80;;;;;;4987957;28;113674;-49
2024/03/04 04:22:26;;;;;;;7.47;2.40;;;10.90;86.60;;;;;;4989281;28;112757;-51
2024/03/04 04:24:53;;;;;;;11.52;2.50;;;10.90;86.10;;;;;;4988724;28;113177;-49
2024/03/04 04:27:18;;;;;;;7.15;1.80;;;10.90;86.30;;;;;;4987948;28;113616;-49
2024/03/04 04:29:44;;;;;;;7.32;2.05;;;10.90;85.90;;;;;;4987380;28;114494;-49
2024/03/04 04:32:13;;;;;;;7.05;2.20;;;11.00;85.80;;;;;;4989157;28;112751;-49
2024/03/04 04:34:44;;;;;;;5.88;2.33;;;10.80;86.20;;;;;;4988911;28;112792;-50
2024/03/04 04:37:10;;;;;;;7.25;2.55;;;10.90;86.20;;;;;;4988242;28;113622;-49
2024/03/04 04:39:39;;;;;;;10.93;2.60;;;11.00;86.30;;;;;;4987751;28;112845;-49
2024/03/04 04:42:08;;;;;;;8.32;2.72;;;11.10;86.20;;;;;;4988424;28;112935;-50
2024/03/04 04:44:34;;;;;;;9.55;2.60;;;11.00;86.20;;;;;;4988932;28;112776;-48
2024/03/04 04:47:01;;;;;;;6.15;1.98;;;11.10;86.20;;;;;;4987652;28;113207;-50
2024/03/04 04:49:26;;;;;;;9.30;2.47;;;11.10;85.40;;;;;;4988107;28;113109;-49
2024/03/04 04:51:52;;;;;;;7.63;2.05;;;11.00;85.60;;;;;;4988519;28;112689;-49
2024/03/04 04:54:18;;;;;;;6.30;1.98;;;10.90;85.80;;;;;;4987552;28;113029;-51
2024/03/04 04:56:44;;;;;;;5.90;2.10;;;10.90;85.70;;;;;;4987685;28;113217;-49
2024/03/04 04:59:10;;;;;;;11.20;2.90;;;10.90;85.50;;;;;;4987522;28;114384;-49
2024/03/04 05:01:36;;;;;;;7.25;2.30;;;10.90;85.50;;;;;;4988449;28;113328;-50
2024/03/04 05:04:02;;;;;;;6.05;1.60;;;10.90;85.20;;;;;;4988210;28;112731;-49
2024/03/04 05:06:27;;;;;;;6.88;1.63;;;10.90;85.20;;;;;;4987346;28;113093;-49
2024/03/04 05:08:53;;;;;;;10.15;2.55;;;10.90;85.30;;;;;;4987555;28;112626;-49
2024/03/04 05:11:21;;;;;;;5.20;1.67;;;10.80;85.80;;;;;;4974012;28;112673;-49
2024/03/04 05:13:48;;;;;;;10.40;2.60;;;10.90;85.20;;;;;;4988380;28;112958;-50
2024/03/04 05:16:15;;;;;;;5.20;2.20;;;10.80;85.50;;;;;;4987290;28;113267;-49
2024/03/04 05:18:41;;;;;;;6.80;2.22;;;10.80;85.50;;;;;;4986960;28;112745;-51
2024/03/04 05:21:07;;;;;;;3.88;1.45;;;10.70;85.60;;;;;;4987594;28;112524;-50
2024/03/04 05:23:33;;;;;;;5.15;1.45;;;10.80;85.20;;;;;;4987868;28;112804;-50
2024/03/04 05:25:59;;;;;;;6.15;1.52;;;10.70;85.20;;;;;;4987095;28;114553;-50
2024/03/04 05:28:25;;;;;;;5.45;1.58;;;10.70;85.60;;;;;;4986689;28;113873;-50
2024/03/04 05:30:52;;;;;;;5.35;1.50;;;10.70;85.60;;;;;;4987666;28;112670;-49
2024/03/04 05:33:18;;;;;;;4.05;1.95;;;10.60;85.60;;;;;;4988363;28;112653;-53
2024/03/04 05:35:44;;;;;;;5.50;1.90;;;10.60;85.80;;;;;;4987022;28;113442;-51
2024/03/04 05:38:10;;;;;;;7.88;2.05;;;10.70;85.50;;;;;;4987025;28;112672;-49
2024/03/04 05:40:36;;;;;;;6.57;1.60;;;10.80;85.50;;;;;;4987653;28;112615;-49
2024/03/04 05:43:01;;;;;;;6.30;2.30;;;10.80;85.50;;;;;;4987502;28;112989;-48
2024/03/04 05:45:28;;;;;;;4.45;1.55;;;10.80;85.40;;;;;;4967522;28;113046;-50
2024/03/04 05:47:54;;;;;;;4.18;1.50;;;10.80;85.50;;;;;;4966953;28;113253;-50
2024/03/04 05:50:19;;;;;;;6.45;2.40;;;10.70;85.70;;;;;;4967394;28;113026;-51
2024/03/04 05:52:46;;;;;;;6.68;2.17;;;10.70;85.90;;;;;;4967965;28;112664;-50
2024/03/04 05:55:12;;;;;;;5.10;1.75;;;10.60;86.30;;;;;;4966609;28;113355;-52
2024/03/04 05:57:38;;;;;;;10.25;2.25;;;10.70;86.30;;;;;;4966713;28;112760;-50
2024/03/04 06:00:11;;;;;;;15.43;5.28;;;10.70;86.10;;;;;;4967929;28;113163;-48
2024/03/04 06:02:41;;;;;;;6.80;2.28;;;10.80;86.10;;;;;;4967614;28;113280;-50
2024/03/04 06:05:07;;;;;;;6.90;2.22;;;10.90;85.90;;;;;;4966259;28;114521;-50
2024/03/04 06:07:33;;;;;;;6.90;2.55;;;10.60;85.90;;;;;;4966009;28;113948;-50
2024/03/04 06:09:59;;;;;;;7.20;2.08;;;10.40;86.80;;;;;;4967154;28;112628;-50
2024/03/04 06:12:24;;;;;;;6.70;1.98;;;10.40;86.60;;;;;;4978005;28;112671;-51
2024/03/04 06:14:50;;;;;;;5.75;2.00;;;10.40;86.50;;;;;;4986360;28;113364;-52
2024/03/04 06:17:16;;;;;;;5.55;2.10;;;10.40;86.50;;;;;;4986432;28;112739;-50
2024/03/04 06:19:41;;;;;;;5.20;1.85;;;10.60;86.10;;;;;;4986856;28;112576;-49
2024/03/04 06:22:07;;;;;;;2.67;1.83;;;10.50;86.00;;;;;;4987342;28;113367;-50
2024/03/04 06:24:34;;;;;;;2.47;1.80;;;10.60;85.70;;;;;;4986429;28;114452;-49
2024/03/04 06:27:03;;;;;;;7.82;2.45;;;10.70;85.20;;;;;;4985950;28;112841;-50
2024/03/04 06:29:35;;;;;;;6.00;2.38;;;10.80;85.60;;;;;;4986773;28;112758;-53
2024/03/04 06:32:04;;;;;;;3.70;2.08;;;10.80;86.00;;;;;;4987105;28;113021;-50
2024/03/04 06:34:31;;;;;;;5.40;2.22;;;10.90;85.40;;;;;;4985942;28;114217;-51
2024/03/04 06:36:58;;;;;;;6.95;2.30;;;11.00;85.30;;;;;;4986451;28;112675;-54
2024/03/04 06:39:25;;;;;;;9.05;2.72;;;11.10;84.50;;;;;;4987056;28;112792;-49
2024/03/04 06:41:54;;;;;;;6.22;2.67;;;11.20;85.00;;;;;;4987117;28;112788;-49
2024/03/04 06:44:20;;;;;;;6.40;2.90;;;11.10;85.20;;;;;;4985854;28;113392;-56
2024/03/04 06:46:46;;;;;;;10.60;2.53;;;10.90;85.60;;;;;;4985750;28;112980;-48
2024/03/04 06:49:12;;;;;;;7.07;2.30;;;10.90;85.90;;;;;;4986652;28;113142;-53
2024/03/04 06:51:38;;;;;;;5.57;2.22;;;11.00;86.10;;;;;;4986793;28;112977;-50
2024/03/04 06:54:04;;;;;;;8.57;2.22;;;10.90;86.30;;;;;;4985813;28;113764;-52
2024/03/04 06:56:31;;;;;;;7.00;2.30;;;10.90;86.10;;;;;;4981789;28;113812;-49
2024/03/04 06:59:00;;;;;;;7.70;2.60;;;10.90;86.30;;;;;;4966480;28;112533;-51
2024/03/04 07:01:27;;;;;;;7.38;2.17;;;10.90;86.40;;;;;;4966838;28;112827;-49
2024/03/04 07:03:53;;;;;;;7.50;2.47;;;10.90;86.30;;;;;;4966665;28;114412;-49
2024/03/04 07:06:19;;;;;;;11.82;3.17;;;10.90;86.50;;;;;;4978944;28;113837;-50
2024/03/04 07:08:45;;;;;;;11.77;6.05;;;10.90;86.40;;;;;;4967679;28;112912;-49
2024/03/04 07:11:18;;;;;;;9.55;3.45;;;11.00;86.50;;;;;;4966853;28;112704;-49
2024/03/04 07:13:44;;;;;;;6.40;2.70;;;10.90;86.40;;;;;;4985861;28;113252;-49
2024/03/04 07:16:15;;;;;;;8.07;2.28;;;11.00;86.40;;;;;;4986559;28;113163;-49
2024/03/04 07:18:41;;;;;;;6.10;2.63;;;11.00;85.90;;;;;;4989937;28;112590;-49
2024/03/04 07:21:07;;;;;;;6.68;2.28;;;11.00;85.70;;;;;;4989716;28;112807;-52
2024/03/04 07:23:33;;;;;;;6.18;2.20;;;11.00;85.80;;;;;;4989136;28;113111;-55
2024/03/04 07:26:04;;;;;;;11.27;2.55;;;11.00;86.00;;;;;;4978568;28;112692;-49
2024/03/04 07:28:30;;;;;;;6.37;2.30;;;11.00;85.90;;;;;;4969806;28;112892;-50
2024/03/04 07:30:56;;;;;;;7.70;2.50;;;11.00;86.00;;;;;;4969570;28;112760;-53
2024/03/04 07:33:22;;;;;;;6.63;2.58;;;10.90;86.40;;;;;;4967474;28;113189;-50
2024/03/04 07:35:47;;;;;;;7.90;2.50;;;11.00;86.20;;;;;;4966943;28;113292;-52
2024/03/04 07:38:13;;;;;;;9.60;3.15;;;10.90;86.30;;;;;;4968432;28;113147;-49
2024/03/04 07:40:39;;;;;;;9.20;3.13;;;10.90;86.60;;;;;;4968329;28;113296;-49
2024/03/04 07:43:04;;;;;;;8.10;2.85;;;11.00;86.20;;;;;;4967138;28;113213;-50
2024/03/04 07:45:30;;;;;;;6.30;2.10;;;11.00;86.30;;;;;;4966414;28;113095;-50
2024/03/04 07:47:56;;;;;;;9.90;2.60;;;11.00;86.00;;;;;;4968400;28;112863;-52
2024/03/04 07:50:22;;;;;;;8.13;2.78;;;10.90;86.50;;;;;;4969734;28;112674;-48
2024/03/04 07:52:49;;;;;;;6.78;3.05;;;11.00;86.60;;;;;;4968748;28;113199;-49
2024/03/04 07:55:17;;;;;;;7.60;2.30;;;10.90;86.80;;;;;;4968578;28;112987;-50
2024/03/04 07:57:43;;;;;;;8.50;2.55;;;10.90;87.00;;;;;;4969359;28;112639;-49
2024/03/04 08:00:10;;;;;;;8.02;2.67;;;10.90;87.10;;;;;;4970143;28;113108;-49
2024/03/04 08:02:37;;;;;;;7.25;2.17;;;10.90;87.10;;;;;;4968503;28;113216;-51
2024/03/04 08:05:05;;;;;;;7.35;2.28;;;11.00;87.00;;;;;;4968504;28;113831;-49
2024/03/04 08:07:31;;;;;;;7.57;2.33;;;11.00;86.90;;;;;;4969044;28;112727;-49
2024/03/04 08:09:57;;;;;;;7.45;3.15;;;10.90;87.00;;;;;;4969111;28;113101;-50
2024/03/04 08:12:23;;;;;;;7.97;2.70;;;10.90;87.10;;;;;;4978280;28;113180;-49
2024/03/04 08:14:49;;;;;;;6.60;2.50;;;11.00;87.10;;;;;;4988221;28;113041;-49
2024/03/04 08:17:17;;;;;;;7.22;2.67;;;11.00;86.80;;;;;;4989262;28;112930;-49
2024/03/04 08:19:44;;;;;;;8.20;2.35;;;11.00;87.10;;;;;;4989315;28;112739;-49
2024/03/04 08:22:09;;;;;;;8.10;2.25;;;11.10;87.00;;;;;;4987997;28;114623;-50
2024/03/04 08:24:35;;;;;;;7.25;2.40;;;11.00;86.70;;;;;;4987896;28;113870;-49
2024/03/04 08:27:01;;;;;;;7.05;2.40;;;11.10;86.80;;;;;;4988547;28;112649;-49
2024/03/04 08:29:26;;;;;;;11.43;2.90;;;11.10;87.00;;;;;;4987903;28;112873;-49
2024/03/04 08:31:52;;;;;;;8.23;2.65;;;11.20;86.90;;;;;;4988133;28;114981;-49
2024/03/04 08:34:19;;;;;;;5.93;2.63;;;11.30;86.60;;;;;;4987535;28;113720;-49
2024/03/04 08:36:44;;;;;;;9.35;2.78;;;11.30;86.60;;;;;;4988516;28;112815;-49
2024/03/04 08:39:10;;;;;;;5.25;2.65;;;11.40;86.10;;;;;;4988752;28;112657;-50
2024/03/04 08:41:45;;;;;;;8.57;2.80;;;11.30;86.60;;;;;;4987695;28;114338;-51
2024/03/04 08:44:12;;;;;;;7.32;2.45;;;11.30;86.70;;;;;;4987508;28;112982;-49
2024/03/04 08:46:38;;;;;;;8.35;2.50;;;11.30;86.50;;;;;;4988793;28;112479;-49
2024/03/04 08:49:04;;;;;;;7.68;2.72;;;11.30;86.10;;;;;;4988781;28;112821;-49
2024/03/04 08:51:30;;;;;;;8.15;2.78;;;11.30;86.30;;;;;;4987611;28;114315;-49
2024/03/04 08:53:56;;;;;;;8.27;2.72;;;11.30;86.30;;;;;;4987558;28;113040;-49
2024/03/04 08:56:22;;;;;;;6.57;2.92;;;11.40;86.20;;;;;;4988447;28;112872;-50
2024/03/04 08:58:47;;;;;;;6.65;2.60;;;11.40;86.30;;;;;;4988407;28;112741;-49
2024/03/04 09:01:14;;;;;;;7.72;2.80;;;11.40;86.30;;;;;;4987509;28;114711;-49
2024/03/04 09:03:43;;;;;;;5.28;2.45;;;11.40;86.30;;;;;;4987433;28;113861;-52
2024/03/04 09:06:19;;;;;;;3.97;2.40;;;11.40;86.10;;;;;;4988069;28;112689;-49
2024/03/04 09:08:45;;;;;;;8.63;3.85;;;11.40;86.30;;;;;;4988620;28;112739;-49
2024/03/04 09:11:11;;;;;;;4.90;2.33;;;11.40;86.30;;;;;;4972989;28;115632;-49
2024/03/04 09:13:37;;;;;;;5.55;2.28;;;11.40;85.90;;;;;;4987291;28;112814;-49
2024/03/04 09:16:04;;;;;;;5.78;2.10;;;11.40;86.20;;;;;;4988154;28;112597;-49
2024/03/04 09:18:30;;;;;;;9.30;2.38;;;11.50;86.10;;;;;;4988372;28;112839;-49
2024/03/04 09:20:56;;;;;;;7.18;2.95;;;11.40;86.30;;;;;;4987103;28;113203;-50
2024/03/04 09:23:24;;;;;;;7.93;2.97;;;11.40;86.70;;;;;;4986849;28;113207;-52
2024/03/04 09:25:50;;;;;;;4.97;2.90;;;11.40;86.60;;;;;;4987969;28;112972;-50
2024/03/04 09:28:15;;;;;;;5.60;3.22;;;11.60;86.60;;;;;;4988184;28;112794;-50
2024/03/04 09:30:41;;;;;;;6.68;3.10;;;11.70;86.10;;;;;;4986558;28;113230;-50
2024/03/04 09:33:07;;;;;;;7.68;3.40;;;11.70;86.00;;;;;;4987596;28;112687;-49
2024/03/04 09:35:33;;;;;;;8.23;3.63;;;11.80;85.80;;;;;;4987460;28;113045;-50
2024/03/04 09:37:59;;;;;;;9.10;3.50;;;11.90;85.80;;;;;;4987986;28;112753;-53
2024/03/04 09:40:25;;;;;;;9.38;3.72;;;12.00;85.40;;;;;;4986749;28;113981;-50
2024/03/04 09:42:51;;;;;;;9.65;3.50;;;12.10;85.40;;;;;;4986965;28;112935;-49
2024/03/04 09:45:21;;;;;;;8.93;3.97;;;12.20;84.80;;;;;;4987545;28;112862;-49
2024/03/04 09:47:50;;;;;;;9.75;4.25;;;12.20;85.10;;;;;;4987385;28;112774;-51
2024/03/04 09:50:17;;;;;;;9.32;3.60;;;12.20;85.50;;;;;;4986736;28;113166;-49
2024/03/04 09:52:45;;;;;;;10.52;2.70;;;12.50;84.90;;;;;;4986763;28;113034;-50
2024/03/04 09:55:11;;;;;;;7.35;3.05;;;12.30;84.40;;;;;;4987499;28;112687;-50
2024/03/04 09:57:36;;;;;;;6.72;2.92;;;12.40;84.30;;;;;;4987803;28;112805;-49
2024/03/04 10:00:03;;;;;;;9.70;2.90;;;12.40;84.20;;;;;;4986799;28;113804;-48
2024/03/04 10:02:29;;;;;;;9.88;2.80;;;12.20;84.00;;;;;;4986621;28;112674;-50
2024/03/04 10:04:55;;;;;;;9.80;3.17;;;12.30;84.00;;;;;;4987518;28;112934;-53
2024/03/04 10:07:22;;;;;;;9.70;2.70;;;12.30;84.40;;;;;;4987398;28;112659;-51
2024/03/04 10:09:53;;;;;;;8.82;3.35;;;12.20;84.60;;;;;;4983671;28;114631;-51
2024/03/04 10:12:19;;;;;;;8.60;3.08;;;12.40;84.50;;;;;;4975934;28;112636;-52
2024/03/04 10:15:03;;;;;;;9.73;2.90;;;12.50;84.60;;;;;;4987062;28;112912;-53
2024/03/04 10:17:30;;;;;;;12.40;3.78;;;12.60;84.00;;;;;;4987546;28;112979;-49
2024/03/04 10:20:07;;;;;;;6.65;3.10;;;12.80;84.20;;;;;;4986106;28;114991;-51
2024/03/04 10:22:40;;;;;;;7.60;2.78;;;13.10;84.10;;;;;;4986471;28;114601;-50
2024/03/04 10:25:08;;;;;;;12.18;4.30;;;13.30;83.00;;;;;;4986883;28;112603;-49
2024/03/04 10:27:43;;;;;;;11.40;4.05;;;13.00;83.20;;;;;;4987141;28;112749;-51
2024/03/04 10:30:13;;;;;;;7.22;3.95;;;12.90;83.70;;;;;;4985867;28;114440;-50
2024/03/04 10:32:46;;;;;;;10.23;4.97;;;13.00;83.90;;;;;;4986822;28;113069;-49
2024/03/04 10:35:13;;;;;;;9.85;5.47;;;13.10;83.70;;;;;;4986962;28;113058;-54
2024/03/04 10:37:39;;;;;;;12.07;5.45;;;13.10;83.90;;;;;;4987137;28;113163;-51
2024/03/04 10:40:09;;;;;;;10.85;5.10;;;13.30;83.80;;;;;;4986072;28;113176;-49
2024/03/04 10:42:35;;;;;;;10.00;4.50;;;13.70;83.40;;;;;;4986021;28;113218;-50
2024/03/04 10:45:04;;;;;;;9.30;4.13;;;14.10;82.70;;;;;;4986831;28;112910;-50
2024/03/04 10:47:32;;;;;;;12.10;4.57;;;14.60;81.50;;;;;;4986739;28;112972;-49
2024/03/04 10:49:58;;;;;;;13.93;4.80;;;14.90;80.70;;;;;;4985641;28;113180;-50
2024/03/04 10:52:24;;;;;;;8.32;3.60;;;15.40;78.50;;;;;;4984791;28;113686;-52
2024/03/04 10:54:50;;;;;;;9.73;6.55;;;15.90;77.20;;;;;;4986844;28;112940;-50
2024/03/04 10:57:26;;;;;;;13.52;3.78;;;16.50;75.80;;;;;;4986987;28;112862;-51
2024/03/04 11:00:25;;;;;;;11.30;3.83;;;16.40;74.80;;;;;;4985979;28;113247;-50
2024/03/04 11:03:00;;;;;;;9.35;3.40;;;16.30;75.10;;;;;;4985098;28;113871;-55
2024/03/04 11:05:33;;;;;;;9.45;3.60;;;16.60;74.20;;;;;;4986657;28;112560;-49
2024/03/04 11:08:06;;;;;;;9.13;3.42;;;16.40;74.30;;;;;;4986586;28;113214;-50
2024/03/04 11:10:49;;;;;;;7.13;2.90;;;16.10;75.40;;;;;;4976830;28;114660;-54
2024/03/04 11:13:33;;;;;;;9.85;3.00;;;16.10;75.40;;;;;;4982607;28;112788;-50
2024/03/04 11:16:23;;;;;;;6.72;2.97;;;16.00;74.70;;;;;;4986647;28;112545;-49
2024/03/04 11:18:51;;;;;;;10.98;3.10;;;16.10;74.20;;;;;;4973705;28;112682;-50
2024/03/04 11:21:19;;;;;;;8.40;3.30;;;15.80;74.90;;;;;;4985627;28;113196;-54
2024/03/04 11:23:46;;;;;;;8.50;3.15;;;16.10;74.60;;;;;;4985207;28;113807;-49
2024/03/04 11:26:12;;;;;;;10.27;3.50;;;15.80;74.00;;;;;;4986378;28;112598;-51
2024/03/04 11:28:39;;;;;;;11.50;3.70;;;15.80;74.80;;;;;;4986312;28;112656;-50
2024/03/04 11:31:21;;;;;;;12.57;4.05;;;15.90;74.80;;;;;;4985339;28;113675;-49
2024/03/04 11:33:47;;;;;;;11.98;3.85;;;16.20;74.50;;;;;;4986190;28;113055;-51
2024/03/04 11:36:15;;;;;;;6.88;3.25;;;16.10;74.80;;;;;;4985901;28;112896;-50
2024/03/04 11:38:42;;;;;;;11.00;3.80;;;16.10;74.10;;;;;;4986359;28;112770;-49
2024/03/04 11:41:08;;;;;;;11.77;3.83;;;15.70;73.30;;;;;;4985275;28;113767;-50
2024/03/04 11:43:50;;;;;;;7.55;3.22;;;15.60;74.90;;;;;;4985109;28;113723;-51
2024/03/04 11:46:20;;;;;;;7.72;3.17;;;15.30;74.30;;;;;;4986209;28;112541;-50
2024/03/04 11:48:49;;;;;;;11.82;3.47;;;15.30;75.00;;;;;;4986078;28;112726;-50
2024/03/04 11:51:43;;;;;;;9.00;3.65;;;15.40;75.60;;;;;;4985125;28;113491;-49
2024/03/04 11:54:09;;;;;;;10.07;3.00;;;15.70;75.50;;;;;;4984962;28;112914;-49
2024/03/04 11:56:35;;;;;;;10.48;3.00;;;15.80;74.20;;;;;;4986064;28;112982;-50
2024/03/04 11:59:01;;;;;;;12.45;3.30;;;15.90;73.20;;;;;;4985935;28;112790;-51
2024/03/04 12:01:27;;;;;;;10.55;3.45;;;16.00;74.00;;;;;;4985100;28;113162;-51
2024/03/04 12:03:53;;;;;;;9.50;3.40;;;16.10;72.50;;;;;;4988049;28;113658;-50
2024/03/04 12:06:19;;;;;;;10.50;3.42;;;16.20;73.10;;;;;;4989015;28;112645;-49
2024/03/04 12:08:45;;;;;;;9.93;3.03;;;16.40;72.20;;;;;;4989613;28;112799;-51
2024/03/04 12:11:11;;;;;;;5.85;2.55;;;16.70;71.90;;;;;;4974361;28;114752;-52
2024/03/04 12:13:37;;;;;;;7.93;2.53;;;16.90;69.80;;;;;;4974226;28;113772;-50
2024/03/04 12:16:04;;;;;;;8.95;2.60;;;17.00;67.60;;;;;;4989110;28;112816;-51
2024/03/04 12:18:31;;;;;;;6.32;2.33;;;17.30;67.30;;;;;;4988876;28;112887;-49
2024/03/04 12:20:56;;;;;;;9.05;2.50;;;17.50;64.80;;;;;;4988594;28;113591;-51
2024/03/04 12:23:26;;;;;;;8.75;3.10;;;17.50;63.60;;;;;;4987791;28;113906;-50
2024/03/04 12:25:52;;;;;;;7.55;2.83;;;17.80;64.20;;;;;;4988809;28;113198;-50
2024/03/04 12:28:18;;;;;;;9.70;2.95;;;18.10;63.90;;;;;;4988712;28;112961;-50
2024/03/04 12:30:43;;;;;;;7.20;2.45;;;18.90;61.90;;;;;;4988075;28;113277;-50
2024/03/04 12:33:09;;;;;;;5.88;1.95;;;19.60;58.50;;;;;;4988754;28;112605;-50
2024/03/04 12:35:35;;;;;;;7.10;2.30;;;21.30;54.40;;;;;;4988735;28;112667;-50